sensor_id;sensor_type;location;lat;lon;timestamp;P1;durP1;ratioP1;P2;durP2;ratioP2
65581;SDS011;52231;40.090;18.348;2023-12-04T00:01:55;13.00;;;3.90;;
65581;SDS011;52231;40.090;18.348;2023-12-04T00:04:23;12.82;;;3.75;;
65581;SDS011;52231;40.090;18.348;2023-12-04T00:06:51;14.23;;;3.92;;
65581;SDS011;52231;40.090;18.348;2023-12-04T00:09:20;13.30;;;4.05;;
65581;SDS011;52231;40.090;18.348;2023-12-04T00:11:48;16.60;;;5.88;;
65581;SDS011;52231;40.090;18.348;2023-12-04T00:14:16;13.25;;;4.57;;
65581;SDS011;52231;40.090;18.348;2023-12-04T00:16:44;20.55;;;5.75;;
65581;SDS011;52231;40.090;18.348;2023-12-04T00:19:13;20.42;;;5.50;;
65581;SDS011;52231;40.090;18.348;2023-12-04T00:21:41;15.25;;;3.78;;
65581;SDS011;52231;40.090;18.348;2023-12-04T00:24:09;14.27;;;4.75;;
65581;SDS011;52231;40.090;18.348;2023-12-04T00:26:37;12.88;;;4.35;;
65581;SDS011;52231;40.090;18.348;2023-12-04T00:29:05;13.32;;;3.53;;
65581;SDS011;52231;40.090;18.348;2023-12-04T00:31:33;12.88;;;3.70;;
65581;SDS011;52231;40.090;18.348;2023-12-04T00:34:02;15.13;;;4.03;;
65581;SDS011;52231;40.090;18.348;2023-12-04T00:36:30;17.83;;;3.75;;
65581;SDS011;52231;40.090;18.348;2023-12-04T00:38:59;11.52;;;3.97;;
65581;SDS011;52231;40.090;18.348;2023-12-04T00:41:27;15.32;;;3.40;;
65581;SDS011;52231;40.090;18.348;2023-12-04T00:43:56;15.40;;;4.38;;
65581;SDS011;52231;40.090;18.348;2023-12-04T00:46:24;13.60;;;3.70;;
65581;SDS011;52231;40.090;18.348;2023-12-04T00:48:53;17.08;;;4.47;;
65581;SDS011;52231;40.090;18.348;2023-12-04T00:51:21;17.10;;;4.93;;
65581;SDS011;52231;40.090;18.348;2023-12-04T00:53:49;11.70;;;3.63;;
65581;SDS011;52231;40.090;18.348;2023-12-04T00:56:17;14.38;;;4.65;;
65581;SDS011;52231;40.090;18.348;2023-12-04T00:58:47;12.43;;;3.92;;
65581;SDS011;52231;40.090;18.348;2023-12-04T01:01:16;11.13;;;4.00;;
65581;SDS011;52231;40.090;18.348;2023-12-04T01:03:45;13.25;;;4.18;;
65581;SDS011;52231;40.090;18.348;2023-12-04T01:06:20;12.43;;;3.78;;
65581;SDS011;52231;40.090;18.348;2023-12-04T01:08:53;14.15;;;3.88;;
65581;SDS011;52231;40.090;18.348;2023-12-04T01:11:22;12.57;;;3.72;;
65581;SDS011;52231;40.090;18.348;2023-12-04T01:13:51;14.65;;;3.70;;
65581;SDS011;52231;40.090;18.348;2023-12-04T01:16:19;13.07;;;3.88;;
65581;SDS011;52231;40.090;18.348;2023-12-04T01:18:47;12.32;;;3.67;;
65581;SDS011;52231;40.090;18.348;2023-12-04T01:21:15;16.23;;;3.90;;
65581;SDS011;52231;40.090;18.348;2023-12-04T01:23:43;12.23;;;3.78;;
65581;SDS011;52231;40.090;18.348;2023-12-04T01:26:11;17.45;;;4.47;;
65581;SDS011;52231;40.090;18.348;2023-12-04T01:28:40;15.80;;;4.00;;
65581;SDS011;52231;40.090;18.348;2023-12-04T01:31:08;17.27;;;4.00;;
65581;SDS011;52231;40.090;18.348;2023-12-04T01:33:36;14.25;;;3.90;;
65581;SDS011;52231;40.090;18.348;2023-12-04T01:36:05;12.75;;;3.85;;
65581;SDS011;52231;40.090;18.348;2023-12-04T01:38:33;14.60;;;4.25;;
65581;SDS011;52231;40.090;18.348;2023-12-04T01:41:01;9.52;;;3.70;;
65581;SDS011;52231;40.090;18.348;2023-12-04T01:43:29;16.70;;;3.90;;
65581;SDS011;52231;40.090;18.348;2023-12-04T01:45:58;11.55;;;4.00;;
65581;SDS011;52231;40.090;18.348;2023-12-04T01:48:29;14.23;;;4.07;;
65581;SDS011;52231;40.090;18.348;2023-12-04T01:50:58;11.65;;;4.07;;
65581;SDS011;52231;40.090;18.348;2023-12-04T01:53:30;15.73;;;3.80;;
65581;SDS011;52231;40.090;18.348;2023-12-04T01:55:59;16.48;;;4.13;;
65581;SDS011;52231;40.090;18.348;2023-12-04T01:58:27;14.27;;;4.10;;
65581;SDS011;52231;40.090;18.348;2023-12-04T02:00:56;14.13;;;4.25;;
65581;SDS011;52231;40.090;18.348;2023-12-04T02:03:24;11.50;;;3.67;;
65581;SDS011;52231;40.090;18.348;2023-12-04T02:05:52;17.30;;;4.25;;
65581;SDS011;52231;40.090;18.348;2023-12-04T02:08:22;17.88;;;5.22;;
65581;SDS011;52231;40.090;18.348;2023-12-04T02:10:50;16.73;;;4.82;;
65581;SDS011;52231;40.090;18.348;2023-12-04T02:13:18;17.40;;;5.32;;
65581;SDS011;52231;40.090;18.348;2023-12-04T02:15:46;15.35;;;4.30;;
65581;SDS011;52231;40.090;18.348;2023-12-04T02:18:20;14.73;;;4.32;;
65581;SDS011;52231;40.090;18.348;2023-12-04T02:20:49;12.82;;;4.50;;
65581;SDS011;52231;40.090;18.348;2023-12-04T02:23:17;11.52;;;4.57;;
65581;SDS011;52231;40.090;18.348;2023-12-04T02:25:45;16.38;;;4.63;;
65581;SDS011;52231;40.090;18.348;2023-12-04T02:28:14;17.67;;;5.13;;
65581;SDS011;52231;40.090;18.348;2023-12-04T02:30:44;14.85;;;4.53;;
65581;SDS011;52231;40.090;18.348;2023-12-04T02:33:15;12.15;;;4.10;;
65581;SDS011;52231;40.090;18.348;2023-12-04T02:35:47;18.35;;;4.75;;
65581;SDS011;52231;40.090;18.348;2023-12-04T02:38:15;14.25;;;4.03;;
65581;SDS011;52231;40.090;18.348;2023-12-04T02:40:44;18.83;;;5.40;;
65581;SDS011;52231;40.090;18.348;2023-12-04T02:43:13;15.82;;;4.30;;
65581;SDS011;52231;40.090;18.348;2023-12-04T02:45:41;16.73;;;5.18;;
65581;SDS011;52231;40.090;18.348;2023-12-04T02:48:09;18.30;;;5.25;;
65581;SDS011;52231;40.090;18.348;2023-12-04T02:50:37;11.40;;;4.55;;
65581;SDS011;52231;40.090;18.348;2023-12-04T02:53:05;14.55;;;4.35;;
65581;SDS011;52231;40.090;18.348;2023-12-04T02:55:33;14.95;;;4.90;;
65581;SDS011;52231;40.090;18.348;2023-12-04T02:58:01;15.48;;;4.30;;
65581;SDS011;52231;40.090;18.348;2023-12-04T03:00:29;12.88;;;4.80;;
65581;SDS011;52231;40.090;18.348;2023-12-04T03:02:58;11.93;;;4.70;;
65581;SDS011;52231;40.090;18.348;2023-12-04T03:05:26;12.95;;;4.28;;
65581;SDS011;52231;40.090;18.348;2023-12-04T03:07:54;12.45;;;4.90;;
65581;SDS011;52231;40.090;18.348;2023-12-04T03:10:22;15.93;;;4.53;;
65581;SDS011;52231;40.090;18.348;2023-12-04T03:12:50;14.32;;;4.63;;
65581;SDS011;52231;40.090;18.348;2023-12-04T03:15:18;18.25;;;4.43;;
65581;SDS011;52231;40.090;18.348;2023-12-04T03:17:46;15.35;;;5.05;;
65581;SDS011;52231;40.090;18.348;2023-12-04T03:20:14;14.20;;;4.88;;
65581;SDS011;52231;40.090;18.348;2023-12-04T03:27:15;10.85;;;3.80;;
65581;SDS011;52231;40.090;18.348;2023-12-04T03:29:43;12.45;;;4.72;;
65581;SDS011;52231;40.090;18.348;2023-12-04T03:32:11;17.50;;;4.18;;
65581;SDS011;52231;40.090;18.348;2023-12-04T03:34:39;18.60;;;4.63;;
65581;SDS011;52231;40.090;18.348;2023-12-04T03:37:08;13.88;;;4.43;;
65581;SDS011;52231;40.090;18.348;2023-12-04T03:39:36;16.20;;;5.30;;
65581;SDS011;52231;40.090;18.348;2023-12-04T03:42:04;18.83;;;5.25;;
65581;SDS011;52231;40.090;18.348;2023-12-04T03:44:32;16.02;;;5.18;;
65581;SDS011;52231;40.090;18.348;2023-12-04T03:47:01;13.40;;;5.15;;
65581;SDS011;52231;40.090;18.348;2023-12-04T03:49:29;14.80;;;5.32;;
65581;SDS011;52231;40.090;18.348;2023-12-04T03:51:57;15.45;;;5.13;;
65581;SDS011;52231;40.090;18.348;2023-12-04T03:54:25;13.70;;;4.78;;
65581;SDS011;52231;40.090;18.348;2023-12-04T03:56:53;15.57;;;4.97;;
65581;SDS011;52231;40.090;18.348;2023-12-04T03:59:21;14.32;;;4.70;;
65581;SDS011;52231;40.090;18.348;2023-12-04T04:01:49;15.95;;;4.85;;
65581;SDS011;52231;40.090;18.348;2023-12-04T04:04:17;15.60;;;5.80;;
65581;SDS011;52231;40.090;18.348;2023-12-04T04:06:45;18.13;;;5.43;;
65581;SDS011;52231;40.090;18.348;2023-12-04T04:09:13;17.38;;;5.70;;
65581;SDS011;52231;40.090;18.348;2023-12-04T04:11:41;23.30;;;5.63;;
65581;SDS011;52231;40.090;18.348;2023-12-04T04:14:09;18.77;;;6.30;;
65581;SDS011;52231;40.090;18.348;2023-12-04T04:16:38;15.55;;;5.28;;
65581;SDS011;52231;40.090;18.348;2023-12-04T04:19:06;15.63;;;5.50;;
65581;SDS011;52231;40.090;18.348;2023-12-04T04:21:34;17.55;;;5.18;;
65581;SDS011;52231;40.090;18.348;2023-12-04T04:24:07;14.98;;;5.43;;
65581;SDS011;52231;40.090;18.348;2023-12-04T04:26:35;16.63;;;4.90;;
65581;SDS011;52231;40.090;18.348;2023-12-04T04:29:03;15.65;;;5.75;;
65581;SDS011;52231;40.090;18.348;2023-12-04T04:31:32;15.77;;;5.63;;
65581;SDS011;52231;40.090;18.348;2023-12-04T04:34:00;17.50;;;5.70;;
65581;SDS011;52231;40.090;18.348;2023-12-04T04:36:28;18.42;;;5.35;;
65581;SDS011;52231;40.090;18.348;2023-12-04T04:38:56;16.98;;;5.53;;
65581;SDS011;52231;40.090;18.348;2023-12-04T04:41:24;12.18;;;5.50;;
65581;SDS011;52231;40.090;18.348;2023-12-04T04:43:53;14.52;;;5.50;;
65581;SDS011;52231;40.090;18.348;2023-12-04T04:46:21;14.15;;;5.22;;
65581;SDS011;52231;40.090;18.348;2023-12-04T04:48:49;13.63;;;5.03;;
65581;SDS011;52231;40.090;18.348;2023-12-04T04:51:17;16.80;;;4.78;;
65581;SDS011;52231;40.090;18.348;2023-12-04T04:53:45;15.45;;;5.75;;
65581;SDS011;52231;40.090;18.348;2023-12-04T04:56:14;15.70;;;5.57;;
65581;SDS011;52231;40.090;18.348;2023-12-04T04:58:43;18.10;;;5.70;;
65581;SDS011;52231;40.090;18.348;2023-12-04T05:01:11;18.60;;;5.85;;
65581;SDS011;52231;40.090;18.348;2023-12-04T05:03:39;13.75;;;5.70;;
65581;SDS011;52231;40.090;18.348;2023-12-04T05:06:07;13.95;;;5.95;;
65581;SDS011;52231;40.090;18.348;2023-12-04T05:08:35;14.70;;;6.20;;
65581;SDS011;52231;40.090;18.348;2023-12-04T05:11:03;16.27;;;5.90;;
65581;SDS011;52231;40.090;18.348;2023-12-04T05:13:32;19.13;;;7.10;;
65581;SDS011;52231;40.090;18.348;2023-12-04T05:16:00;19.75;;;7.60;;
65581;SDS011;52231;40.090;18.348;2023-12-04T05:18:28;16.77;;;7.07;;
65581;SDS011;52231;40.090;18.348;2023-12-04T05:20:56;16.92;;;6.57;;
65581;SDS011;52231;40.090;18.348;2023-12-04T05:23:24;17.30;;;5.63;;
65581;SDS011;52231;40.090;18.348;2023-12-04T05:25:52;14.93;;;5.43;;
65581;SDS011;52231;40.090;18.348;2023-12-04T05:28:20;17.05;;;6.05;;
65581;SDS011;52231;40.090;18.348;2023-12-04T05:30:48;15.73;;;6.18;;
65581;SDS011;52231;40.090;18.348;2023-12-04T05:33:17;16.83;;;6.05;;
65581;SDS011;52231;40.090;18.348;2023-12-04T05:35:47;16.48;;;6.25;;
65581;SDS011;52231;40.090;18.348;2023-12-04T05:38:15;17.98;;;7.90;;
65581;SDS011;52231;40.090;18.348;2023-12-04T05:40:44;21.73;;;7.32;;
65581;SDS011;52231;40.090;18.348;2023-12-04T05:43:12;17.85;;;7.53;;
65581;SDS011;52231;40.090;18.348;2023-12-04T05:45:40;19.08;;;8.00;;
65581;SDS011;52231;40.090;18.348;2023-12-04T05:48:08;22.35;;;7.85;;
65581;SDS011;52231;40.090;18.348;2023-12-04T05:50:37;16.15;;;6.35;;
65581;SDS011;52231;40.090;18.348;2023-12-04T05:53:06;14.93;;;6.28;;
65581;SDS011;52231;40.090;18.348;2023-12-04T05:55:35;15.43;;;6.13;;
65581;SDS011;52231;40.090;18.348;2023-12-04T05:58:03;15.10;;;5.82;;
65581;SDS011;52231;40.090;18.348;2023-12-04T06:00:31;17.10;;;5.97;;
65581;SDS011;52231;40.090;18.348;2023-12-04T06:02:59;15.15;;;5.68;;
65581;SDS011;52231;40.090;18.348;2023-12-04T06:05:27;17.50;;;6.28;;
65581;SDS011;52231;40.090;18.348;2023-12-04T06:07:56;16.58;;;6.35;;
65581;SDS011;52231;40.090;18.348;2023-12-04T06:10:25;18.48;;;7.80;;
65581;SDS011;52231;40.090;18.348;2023-12-04T06:12:53;16.95;;;7.00;;
65581;SDS011;52231;40.090;18.348;2023-12-04T06:15:21;18.33;;;7.13;;
65581;SDS011;52231;40.090;18.348;2023-12-04T06:17:50;19.63;;;6.90;;
65581;SDS011;52231;40.090;18.348;2023-12-04T06:20:18;19.10;;;6.97;;
65581;SDS011;52231;40.090;18.348;2023-12-04T06:22:46;18.67;;;6.07;;
65581;SDS011;52231;40.090;18.348;2023-12-04T06:25:15;17.45;;;7.22;;
65581;SDS011;52231;40.090;18.348;2023-12-04T06:27:43;20.45;;;7.00;;
65581;SDS011;52231;40.090;18.348;2023-12-04T06:30:12;13.48;;;5.88;;
65581;SDS011;52231;40.090;18.348;2023-12-04T06:32:41;17.70;;;6.55;;
65581;SDS011;52231;40.090;18.348;2023-12-04T06:35:09;19.02;;;6.65;;
65581;SDS011;52231;40.090;18.348;2023-12-04T06:37:38;14.30;;;7.00;;
65581;SDS011;52231;40.090;18.348;2023-12-04T06:40:10;21.92;;;7.70;;
65581;SDS011;52231;40.090;18.348;2023-12-04T06:45:08;17.77;;;8.15;;
65581;SDS011;52231;40.090;18.348;2023-12-04T06:47:37;15.23;;;6.07;;
65581;SDS011;52231;40.090;18.348;2023-12-04T06:50:09;13.48;;;6.22;;
65581;SDS011;52231;40.090;18.348;2023-12-04T06:52:37;13.45;;;6.13;;
65581;SDS011;52231;40.090;18.348;2023-12-04T06:55:05;16.08;;;5.90;;
65581;SDS011;52231;40.090;18.348;2023-12-04T06:57:34;18.02;;;7.03;;
65581;SDS011;52231;40.090;18.348;2023-12-04T07:00:03;15.25;;;6.22;;
65581;SDS011;52231;40.090;18.348;2023-12-04T07:02:34;13.05;;;5.20;;
65581;SDS011;52231;40.090;18.348;2023-12-04T07:05:02;18.40;;;7.22;;
65581;SDS011;52231;40.090;18.348;2023-12-04T07:07:30;15.43;;;7.05;;
65581;SDS011;52231;40.090;18.348;2023-12-04T07:12:27;17.48;;;7.63;;
65581;SDS011;52231;40.090;18.348;2023-12-04T07:14:55;20.05;;;10.50;;
65581;SDS011;52231;40.090;18.348;2023-12-04T07:17:24;21.75;;;13.18;;
65581;SDS011;52231;40.090;18.348;2023-12-04T07:19:52;17.27;;;9.27;;
65581;SDS011;52231;40.090;18.348;2023-12-04T07:22:20;15.27;;;8.25;;
65581;SDS011;52231;40.090;18.348;2023-12-04T07:24:49;13.52;;;7.18;;
65581;SDS011;52231;40.090;18.348;2023-12-04T07:27:17;12.45;;;5.00;;
65581;SDS011;52231;40.090;18.348;2023-12-04T07:29:45;9.75;;;4.30;;
65581;SDS011;52231;40.090;18.348;2023-12-04T07:32:13;9.77;;;3.70;;
65581;SDS011;52231;40.090;18.348;2023-12-04T07:34:42;9.32;;;3.25;;
65581;SDS011;52231;40.090;18.348;2023-12-04T07:37:10;8.52;;;3.28;;
65581;SDS011;52231;40.090;18.348;2023-12-04T07:39:38;8.70;;;3.65;;
65581;SDS011;52231;40.090;18.348;2023-12-04T07:42:06;12.65;;;4.80;;
65581;SDS011;52231;40.090;18.348;2023-12-04T07:44:35;16.05;;;5.45;;
65581;SDS011;52231;40.090;18.348;2023-12-04T07:49:31;47.60;;;18.08;;
65581;SDS011;52231;40.090;18.348;2023-12-04T07:52:00;27.92;;;11.27;;
65581;SDS011;52231;40.090;18.348;2023-12-04T07:56:56;9.70;;;3.33;;
65581;SDS011;52231;40.090;18.348;2023-12-04T07:59:25;10.35;;;3.30;;
65581;SDS011;52231;40.090;18.348;2023-12-04T08:01:53;15.90;;;6.50;;
65581;SDS011;52231;40.090;18.348;2023-12-04T08:04:22;9.95;;;3.20;;
65581;SDS011;52231;40.090;18.348;2023-12-04T08:06:51;9.77;;;3.15;;
65581;SDS011;52231;40.090;18.348;2023-12-04T08:09:19;10.43;;;3.80;;
65581;SDS011;52231;40.090;18.348;2023-12-04T08:11:48;10.23;;;3.35;;
65581;SDS011;52231;40.090;18.348;2023-12-04T08:14:16;11.52;;;3.22;;
65581;SDS011;52231;40.090;18.348;2023-12-04T08:16:44;10.07;;;3.72;;
65581;SDS011;52231;40.090;18.348;2023-12-04T08:19:13;12.43;;;4.38;;
65581;SDS011;52231;40.090;18.348;2023-12-04T08:21:41;9.95;;;3.13;;
65581;SDS011;52231;40.090;18.348;2023-12-04T08:24:09;9.38;;;3.60;;
65581;SDS011;52231;40.090;18.348;2023-12-04T08:26:37;7.60;;;2.58;;
65581;SDS011;52231;40.090;18.348;2023-12-04T08:29:05;8.55;;;2.72;;
65581;SDS011;52231;40.090;18.348;2023-12-04T08:31:33;9.80;;;2.47;;
65581;SDS011;52231;40.090;18.348;2023-12-04T08:34:01;5.55;;;2.33;;
65581;SDS011;52231;40.090;18.348;2023-12-04T08:36:29;11.35;;;2.88;;
65581;SDS011;52231;40.090;18.348;2023-12-04T08:38:58;11.15;;;3.50;;
65581;SDS011;52231;40.090;18.348;2023-12-04T08:41:26;8.23;;;3.15;;
65581;SDS011;52231;40.090;18.348;2023-12-04T08:43:55;9.10;;;3.00;;
65581;SDS011;52231;40.090;18.348;2023-12-04T08:46:24;9.50;;;2.35;;
65581;SDS011;52231;40.090;18.348;2023-12-04T08:48:52;7.82;;;2.05;;
65581;SDS011;52231;40.090;18.348;2023-12-04T08:51:21;5.38;;;2.13;;
65581;SDS011;52231;40.090;18.348;2023-12-04T08:53:49;6.97;;;2.00;;
65581;SDS011;52231;40.090;18.348;2023-12-04T08:56:17;4.60;;;1.88;;
65581;SDS011;52231;40.090;18.348;2023-12-04T08:58:45;7.55;;;1.90;;
65581;SDS011;52231;40.090;18.348;2023-12-04T09:01:13;5.88;;;1.70;;
65581;SDS011;52231;40.090;18.348;2023-12-04T09:06:10;7.85;;;2.20;;
65581;SDS011;52231;40.090;18.348;2023-12-04T09:08:38;5.75;;;1.48;;
65581;SDS011;52231;40.090;18.348;2023-12-04T09:11:07;5.78;;;2.13;;
65581;SDS011;52231;40.090;18.348;2023-12-04T09:13:36;5.53;;;1.77;;
65581;SDS011;52231;40.090;18.348;2023-12-04T09:16:06;7.85;;;1.60;;
65581;SDS011;52231;40.090;18.348;2023-12-04T09:18:35;5.30;;;1.13;;
65581;SDS011;52231;40.090;18.348;2023-12-04T09:21:03;6.15;;;1.50;;
65581;SDS011;52231;40.090;18.348;2023-12-04T09:23:32;5.85;;;1.50;;
65581;SDS011;52231;40.090;18.348;2023-12-04T09:26:00;4.80;;;1.70;;
65581;SDS011;52231;40.090;18.348;2023-12-04T09:28:29;5.22;;;1.70;;
65581;SDS011;52231;40.090;18.348;2023-12-04T09:30:58;3.80;;;1.50;;
65581;SDS011;52231;40.090;18.348;2023-12-04T09:33:26;2.88;;;1.45;;
65581;SDS011;52231;40.090;18.348;2023-12-04T09:35:54;3.08;;;1.52;;
65581;SDS011;52231;40.090;18.348;2023-12-04T09:38:22;4.65;;;1.55;;
65581;SDS011;52231;40.090;18.348;2023-12-04T09:40:50;6.00;;;1.60;;
65581;SDS011;52231;40.090;18.348;2023-12-04T09:43:20;6.03;;;1.95;;
65581;SDS011;52231;40.090;18.348;2023-12-04T09:45:49;6.78;;;1.90;;
65581;SDS011;52231;40.090;18.348;2023-12-04T09:48:18;5.60;;;1.75;;
65581;SDS011;52231;40.090;18.348;2023-12-04T09:50:47;6.28;;;2.00;;
65581;SDS011;52231;40.090;18.348;2023-12-04T09:53:15;3.83;;;1.60;;
65581;SDS011;52231;40.090;18.348;2023-12-04T09:55:44;5.97;;;1.75;;
65581;SDS011;52231;40.090;18.348;2023-12-04T09:58:19;5.60;;;2.22;;
65581;SDS011;52231;40.090;18.348;2023-12-04T10:00:48;5.32;;;1.73;;
65581;SDS011;52231;40.090;18.348;2023-12-04T10:03:16;3.05;;;1.65;;
65581;SDS011;52231;40.090;18.348;2023-12-04T10:05:45;4.60;;;1.95;;
65581;SDS011;52231;40.090;18.348;2023-12-04T10:08:16;3.45;;;1.60;;
65581;SDS011;52231;40.090;18.348;2023-12-04T10:10:44;6.07;;;2.10;;
65581;SDS011;52231;40.090;18.348;2023-12-04T10:13:13;5.43;;;1.60;;
65581;SDS011;52231;40.090;18.348;2023-12-04T10:15:48;6.53;;;1.60;;
65581;SDS011;52231;40.090;18.348;2023-12-04T10:18:35;4.40;;;1.42;;
65581;SDS011;52231;40.090;18.348;2023-12-04T10:23:42;3.85;;;1.45;;
65581;SDS011;52231;40.090;18.348;2023-12-04T10:26:14;3.42;;;1.55;;
65581;SDS011;52231;40.090;18.348;2023-12-04T10:29:01;8.52;;;1.50;;
65581;SDS011;52231;40.090;18.348;2023-12-04T10:31:33;7.88;;;1.75;;
65581;SDS011;52231;40.090;18.348;2023-12-04T10:34:04;4.55;;;1.40;;
65581;SDS011;52231;40.090;18.348;2023-12-04T10:36:32;6.00;;;1.60;;
65581;SDS011;52231;40.090;18.348;2023-12-04T10:39:01;4.47;;;1.40;;
65581;SDS011;52231;40.090;18.348;2023-12-04T10:42:03;5.10;;;1.48;;
65581;SDS011;52231;40.090;18.348;2023-12-04T10:44:32;5.13;;;1.30;;
65581;SDS011;52231;40.090;18.348;2023-12-04T10:47:00;5.00;;;1.98;;
65581;SDS011;52231;40.090;18.348;2023-12-04T10:49:28;5.03;;;1.90;;
65581;SDS011;52231;40.090;18.348;2023-12-04T10:51:59;3.75;;;1.60;;
65581;SDS011;52231;40.090;18.348;2023-12-04T10:54:28;4.28;;;1.48;;
65581;SDS011;52231;40.090;18.348;2023-12-04T10:56:58;5.25;;;1.80;;
65581;SDS011;52231;40.090;18.348;2023-12-04T10:59:32;7.38;;;2.17;;
65581;SDS011;52231;40.090;18.348;2023-12-04T11:02:06;16.27;;;7.97;;
65581;SDS011;52231;40.090;18.348;2023-12-04T11:04:36;6.13;;;1.40;;
65581;SDS011;52231;40.090;18.348;2023-12-04T11:07:06;6.95;;;2.60;;
65581;SDS011;52231;40.090;18.348;2023-12-04T11:09:35;4.63;;;1.60;;
65581;SDS011;52231;40.090;18.348;2023-12-04T11:12:07;6.68;;;1.80;;
65581;SDS011;52231;40.090;18.348;2023-12-04T11:14:42;6.53;;;1.60;;
65581;SDS011;52231;40.090;18.348;2023-12-04T11:17:14;4.68;;;1.52;;
65581;SDS011;52231;40.090;18.348;2023-12-04T11:22:15;4.57;;;1.30;;
65581;SDS011;52231;40.090;18.348;2023-12-04T11:24:49;4.47;;;1.30;;
65581;SDS011;52231;40.090;18.348;2023-12-04T11:27:18;5.80;;;1.60;;
65581;SDS011;52231;40.090;18.348;2023-12-04T11:29:47;3.25;;;1.60;;
65581;SDS011;52231;40.090;18.348;2023-12-04T11:32:17;5.85;;;1.58;;
65581;SDS011;52231;40.090;18.348;2023-12-04T11:34:54;4.57;;;1.30;;
65581;SDS011;52231;40.090;18.348;2023-12-04T11:37:24;4.95;;;1.67;;
65581;SDS011;52231;40.090;18.348;2023-12-04T11:39:53;5.55;;;1.90;;
65581;SDS011;52231;40.090;18.348;2023-12-04T11:42:25;7.13;;;1.92;;
65581;SDS011;52231;40.090;18.348;2023-12-04T11:44:59;2.40;;;1.48;;
65581;SDS011;52231;40.090;18.348;2023-12-04T11:47:28;5.80;;;2.00;;
65581;SDS011;52231;40.090;18.348;2023-12-04T11:52:32;3.53;;;1.27;;
65581;SDS011;52231;40.090;18.348;2023-12-04T11:55:03;7.30;;;1.83;;
65581;SDS011;52231;40.090;18.348;2023-12-04T11:57:34;5.28;;;1.50;;
65581;SDS011;52231;40.090;18.348;2023-12-04T12:05:22;6.78;;;2.08;;
65581;SDS011;52231;40.090;18.348;2023-12-04T12:07:51;5.65;;;1.70;;
65581;SDS011;52231;40.090;18.348;2023-12-04T12:10:19;3.25;;;1.50;;
65581;SDS011;52231;40.090;18.348;2023-12-04T12:12:47;5.03;;;1.90;;
65581;SDS011;52231;40.090;18.348;2023-12-04T12:15:19;6.32;;;2.00;;
65581;SDS011;52231;40.090;18.348;2023-12-04T12:17:50;5.13;;;1.58;;
65581;SDS011;52231;40.090;18.348;2023-12-04T12:20:21;8.32;;;2.33;;
65581;SDS011;52231;40.090;18.348;2023-12-04T12:22:49;7.35;;;2.70;;
65581;SDS011;52231;40.090;18.348;2023-12-04T12:25:17;8.50;;;2.80;;
65581;SDS011;52231;40.090;18.348;2023-12-04T12:27:47;4.55;;;1.63;;
65581;SDS011;52231;40.090;18.348;2023-12-04T12:32:44;9.18;;;2.28;;
65581;SDS011;52231;40.090;18.348;2023-12-04T12:35:12;4.35;;;1.45;;
65581;SDS011;52231;40.090;18.348;2023-12-04T12:40:09;8.95;;;3.50;;
65581;SDS011;52231;40.090;18.348;2023-12-04T12:42:38;8.77;;;1.90;;
65581;SDS011;52231;40.090;18.348;2023-12-04T12:45:09;5.25;;;1.40;;
65581;SDS011;52231;40.090;18.348;2023-12-04T12:47:40;5.65;;;1.70;;
65581;SDS011;52231;40.090;18.348;2023-12-04T12:50:10;3.78;;;1.35;;
65581;SDS011;52231;40.090;18.348;2023-12-04T12:52:42;5.53;;;1.90;;
65581;SDS011;52231;40.090;18.348;2023-12-04T12:55:11;8.73;;;1.80;;
65581;SDS011;52231;40.090;18.348;2023-12-04T12:57:51;7.90;;;2.90;;
65581;SDS011;52231;40.090;18.348;2023-12-04T13:00:20;5.60;;;2.00;;
65581;SDS011;52231;40.090;18.348;2023-12-04T13:02:53;4.85;;;1.67;;
65581;SDS011;52231;40.090;18.348;2023-12-04T13:05:21;9.68;;;3.38;;
65581;SDS011;52231;40.090;18.348;2023-12-04T13:07:50;3.38;;;1.30;;
65581;SDS011;52231;40.090;18.348;2023-12-04T13:10:18;4.32;;;1.60;;
65581;SDS011;52231;40.090;18.348;2023-12-04T13:12:46;4.30;;;1.55;;
65581;SDS011;52231;40.090;18.348;2023-12-04T13:15:19;7.05;;;1.80;;
65581;SDS011;52231;40.090;18.348;2023-12-04T13:17:47;5.20;;;1.60;;
65581;SDS011;52231;40.090;18.348;2023-12-04T13:20:16;5.03;;;1.42;;
65581;SDS011;52231;40.090;18.348;2023-12-04T13:22:45;3.13;;;1.50;;
65581;SDS011;52231;40.090;18.348;2023-12-04T13:25:13;4.82;;;1.80;;
65581;SDS011;52231;40.090;18.348;2023-12-04T13:27:42;3.83;;;1.85;;
65581;SDS011;52231;40.090;18.348;2023-12-04T13:30:11;4.57;;;1.55;;
65581;SDS011;52231;40.090;18.348;2023-12-04T13:32:39;3.28;;;1.50;;
65581;SDS011;52231;40.090;18.348;2023-12-04T13:35:07;2.85;;;1.52;;
65581;SDS011;52231;40.090;18.348;2023-12-04T13:40:06;4.32;;;1.80;;
65581;SDS011;52231;40.090;18.348;2023-12-04T13:42:35;5.25;;;1.60;;
65581;SDS011;52231;40.090;18.348;2023-12-04T13:45:23;3.45;;;1.50;;
65581;SDS011;52231;40.090;18.348;2023-12-04T13:50:20;2.90;;;1.42;;
65581;SDS011;52231;40.090;18.348;2023-12-04T13:52:49;3.67;;;1.90;;
65581;SDS011;52231;40.090;18.348;2023-12-04T13:55:24;5.80;;;1.70;;
65581;SDS011;52231;40.090;18.348;2023-12-04T13:58:19;6.30;;;1.92;;
65581;SDS011;52231;40.090;18.348;2023-12-04T14:01:07;6.13;;;1.45;;
65581;SDS011;52231;40.090;18.348;2023-12-04T14:03:42;3.80;;;1.70;;
65581;SDS011;52231;40.090;18.348;2023-12-04T14:06:12;4.47;;;1.63;;
65581;SDS011;52231;40.090;18.348;2023-12-04T14:08:42;3.83;;;1.70;;
65581;SDS011;52231;40.090;18.348;2023-12-04T14:11:11;7.03;;;1.83;;
65581;SDS011;52231;40.090;18.348;2023-12-04T14:13:41;7.50;;;1.98;;
65581;SDS011;52231;40.090;18.348;2023-12-04T14:16:10;4.65;;;1.70;;
65581;SDS011;52231;40.090;18.348;2023-12-04T14:18:38;5.55;;;1.88;;
65581;SDS011;52231;40.090;18.348;2023-12-04T14:21:08;5.68;;;1.92;;
65581;SDS011;52231;40.090;18.348;2023-12-04T14:23:36;10.32;;;2.85;;
65581;SDS011;52231;40.090;18.348;2023-12-04T14:26:04;5.13;;;1.90;;
65581;SDS011;52231;40.090;18.348;2023-12-04T14:28:33;4.65;;;1.88;;
65581;SDS011;52231;40.090;18.348;2023-12-04T14:31:03;5.80;;;1.95;;
65581;SDS011;52231;40.090;18.348;2023-12-04T14:33:32;6.88;;;1.75;;
65581;SDS011;52231;40.090;18.348;2023-12-04T14:36:00;3.08;;;1.60;;
65581;SDS011;52231;40.090;18.348;2023-12-04T14:38:28;4.28;;;1.80;;
65581;SDS011;52231;40.090;18.348;2023-12-04T14:40:57;5.70;;;2.20;;
65581;SDS011;52231;40.090;18.348;2023-12-04T14:43:30;3.70;;;1.80;;
65581;SDS011;52231;40.090;18.348;2023-12-04T14:48:26;7.68;;;1.80;;
65581;SDS011;52231;40.090;18.348;2023-12-04T14:50:55;5.72;;;1.77;;
65581;SDS011;52231;40.090;18.348;2023-12-04T14:53:25;4.55;;;1.75;;
65581;SDS011;52231;40.090;18.348;2023-12-04T14:55:58;4.18;;;1.90;;
65581;SDS011;52231;40.090;18.348;2023-12-04T14:58:35;4.22;;;1.88;;
65581;SDS011;52231;40.090;18.348;2023-12-04T15:01:04;7.18;;;1.85;;
65581;SDS011;52231;40.090;18.348;2023-12-04T15:03:38;8.68;;;2.47;;
65581;SDS011;52231;40.090;18.348;2023-12-04T15:06:25;7.97;;;2.40;;
65581;SDS011;52231;40.090;18.348;2023-12-04T15:08:53;6.20;;;2.38;;
65581;SDS011;52231;40.090;18.348;2023-12-04T15:11:39;10.02;;;2.88;;
65581;SDS011;52231;40.090;18.348;2023-12-04T15:14:25;7.88;;;3.20;;
65581;SDS011;52231;40.090;18.348;2023-12-04T15:16:59;10.82;;;3.95;;
65581;SDS011;52231;40.090;18.348;2023-12-04T15:19:45;11.02;;;3.42;;
65581;SDS011;52231;40.090;18.348;2023-12-04T15:22:31;12.23;;;3.80;;
65581;SDS011;52231;40.090;18.348;2023-12-04T15:25:00;9.68;;;3.85;;